Time;durP1;ratioP1;P1;durP2;ratioP2;P2;SDS_P1;SDS_P2;PMS_P1;PMS_P2;Temp;Humidity;BMP_temperature;BMP_pressure;BME280_temperature;BME280_humidity;BME280_pressure;Samples;Min_cycle;Max_cycle;Signal;HPM_P1;HPM_P2
2023/07/20 00:03:37;;;;;;;4.20;1.90;;;;;;;18.55;58.98;99554.59;30836328;28;109921;-67
2023/07/20 00:18:37;;;;;;;4.30;2.00;;;;;;;18.08;61.52;99587.00;30851373;28;99489;-67
2023/07/20 00:33:38;;;;;;;5.45;1.98;;;;;;;17.16;64.72;99604.38;30852096;28;98351;-67
2023/07/20 00:48:39;;;;;;;3.50;1.98;;;;;;;16.51;66.81;99560.88;30852486;28;113627;-67
2023/07/20 01:03:39;;;;;;;4.07;2.33;;;;;;;16.38;69.02;99561.00;30852480;28;96696;-67
2023/07/20 01:18:40;;;;;;;4.95;2.47;;;;;;;16.67;69.64;99577.44;30849598;28;111155;-67
2023/07/20 01:33:42;;;;;;;6.90;2.47;;;;;;;16.52;69.82;99567.84;30848911;28;97357;-67
2023/07/20 01:48:42;;;;;;;6.17;3.23;;;;;;;15.94;70.25;99554.81;30846746;28;97010;-67
2023/07/20 02:03:43;;;;;;;4.80;2.60;;;;;;;15.57;72.35;99564.41;30845961;28;96771;-67
2023/07/20 02:18:43;;;;;;;5.13;3.10;;;;;;;15.35;73.30;99565.78;30843407;28;113968;-67
2023/07/20 02:33:43;;;;;;;4.60;2.80;;;;;;;15.23;74.24;99568.38;30843491;28;97051;-67
2023/07/20 02:48:43;;;;;;;4.07;2.90;;;;;;;14.99;74.80;99583.34;30841704;28;114923;-67
2023/07/20 03:03:47;;;;;;;6.82;2.80;;;;;;;14.83;75.40;99569.41;30839685;28;106395;-67
2023/07/20 03:18:47;;;;;;;4.70;3.00;;;;;;;14.86;76.35;99579.69;30838759;28;97548;-67
2023/07/20 03:33:48;;;;;;;4.32;2.20;;;;;;;15.00;76.82;99587.69;30830056;28;97159;-67
2023/07/20 03:48:48;;;;;;;6.30;2.60;;;;;;;15.05;76.89;99571.78;30838604;28;98070;-68
2023/07/20 04:03:48;;;;;;;5.07;2.75;;;;;;;15.35;76.68;99581.91;30853163;28;108341;-67
2023/07/20 04:18:49;;;;;;;6.78;3.00;;;;;;;16.06;76.88;99593.34;30851398;28;99284;-65
2023/07/20 04:33:49;;;;;;;5.85;3.40;;;;;;;16.94;76.08;99601.34;30850443;28;97086;-66
2023/07/20 04:48:50;;;;;;;7.35;3.30;;;;;;;17.49;74.93;99606.56;30847783;28;97467;-66
2023/07/20 05:03:50;;;;;;;5.60;2.92;;;;;;;17.96;73.95;99629.28;30782921;28;97262;-66
2023/07/20 05:18:51;;;;;;;8.73;3.58;;;;;;;18.03;72.63;99643.47;30817290;28;108028;-67
2023/07/20 05:33:51;;;;;;;5.35;3.25;;;;;;;18.08;72.97;99665.16;30834500;28;97264;-67
2023/07/20 05:48:51;;;;;;;4.70;3.30;;;;;;;18.80;72.14;99661.41;30748494;28;100777;-67
2023/07/20 06:03:52;;;;;;;10.40;4.50;;;;;;;18.93;70.87;99652.25;30726032;28;105518;-67
2023/07/20 06:18:52;;;;;;;11.98;4.57;;;;;;;19.20;70.23;99673.28;30852024;28;108328;-67
2023/07/20 06:33:52;;;;;;;10.13;4.32;;;;;;;20.50;68.30;99694.19;30887107;28;117463;-67
2023/07/20 06:48:53;;;;;;;7.78;4.82;;;;;;;21.66;66.30;99696.22;30834318;28;97136;-66
2023/07/20 07:03:54;;;;;;;5.90;3.53;;;;;;;22.43;62.58;99694.16;30835886;28;97103;-66
2023/07/20 07:18:54;;;;;;;5.93;3.43;;;;;;;23.23;59.16;99704.94;30835976;28;102274;-66
2023/07/20 07:33:54;;;;;;;;;;;;;;;23.27;55.37;99706.03;30835018;28;97590;-67
2023/07/20 07:48:55;;;;;;;7.33;3.10;;;;;;;24.19;55.00;99723.63;30865317;28;96968;-67
2023/07/20 08:03:55;;;;;;;6.18;2.90;;;;;;;23.46;51.60;99719.97;30927377;28;96613;-67
2023/07/20 08:18:56;;;;;;;4.45;3.00;;;;;;;23.53;52.19;99722.44;30736802;28;97081;-67
2023/07/20 08:33:56;;;;;;;3.88;2.13;;;;;;;24.07;48.97;99714.94;30818255;28;96704;-67
2023/07/20 08:48:58;;;;;;;3.45;1.90;;;;;;;22.59;49.22;99728.47;30735600;28;97058;-66
2023/07/20 09:03:58;;;;;;;3.50;2.17;;;;;;;23.94;48.86;99727.97;30725610;28;97164;-67
2023/07/20 09:18:59;;;;;;;2.95;1.60;;;;;;;24.88;44.90;99724.13;30786536;28;96971;-67
2023/07/20 09:33:59;;;;;;;3.83;1.95;;;;;;;25.03;46.25;99730.59;30839438;28;112091;-69
2023/07/20 09:48:59;;;;;;;4.95;1.55;;;;;;;26.25;43.27;99711.94;30846642;28;97260;-66
2023/07/20 10:04:03;;;;;;;2.08;1.40;;;;;;;26.65;40.44;99711.81;30842979;28;105643;-69
2023/07/20 10:19:13;;;;;;;2.93;1.17;;;;;;;27.91;38.55;99692.44;30841128;28;97302;-66
2023/07/20 10:34:14;;;;;;;1.10;0.70;;;;;;;28.91;34.62;99694.00;30840310;28;97314;-68
2023/07/20 10:49:15;;;;;;;1.83;1.00;;;;;;;29.85;32.18;99683.47;30836597;28;97845;-66
2023/07/20 11:04:18;;;;;;;2.33;1.37;;;;;;;30.34;31.30;99672.59;30834563;28;97516;-67
2023/07/20 11:19:24;;;;;;;1.03;0.90;;;;;;;30.70;29.74;99655.16;30835578;28;97593;-67
2023/07/20 11:34:24;;;;;;;2.37;1.23;;;;;;;30.53;29.97;99666.09;30833596;28;96993;-67
2023/07/20 11:49:25;;;;;;;4.22;1.75;;;;;;;27.82;35.37;99713.41;30833763;28;98512;-65
2023/07/20 12:04:25;;;;;;;2.30;2.10;;;;;;;24.07;43.75;99747.56;30830731;28;97949;-69
2023/07/20 12:19:26;;;;;;;3.20;2.20;;;;;;;24.30;46.21;99733.44;30831053;28;98028;-70
2023/07/20 12:34:26;;;;;;;2.00;1.80;;;;;;;26.85;42.90;99719.81;30830151;28;97832;-67
2023/07/20 12:49:26;;;;;;;3.28;1.60;;;;;;;28.22;37.57;99724.03;30797870;28;99643;-69
2023/07/20 13:04:27;;;;;;;3.22;1.20;;;;;;;28.70;36.15;99724.56;30802116;28;97230;-66
2023/07/20 13:19:27;;;;;;;1.77;1.30;;;;;;;28.90;34.45;99714.31;30725943;28;96747;-66
2023/07/20 13:34:27;;;;;;;1.25;1.10;;;;;;;29.34;33.36;99717.53;30723490;28;117921;-70
2023/07/20 13:49:28;;;;;;;1.98;1.30;;;;;;;28.13;33.61;99691.00;30723176;28;118335;-70
2023/07/20 14:04:28;;;;;;;1.52;1.02;;;;;;;26.43;35.74;99685.81;30833073;28;114751;-70
2023/07/20 14:19:29;;;;;;;3.55;1.10;;;;;;;26.09;36.24;99686.66;30790149;28;96758;-70
2023/07/20 14:34:29;;;;;;;1.88;1.00;;;;;;;25.83;36.86;99681.41;30713914;28;97084;-68
2023/07/20 14:49:29;;;;;;;3.10;1.00;;;;;;;25.19;36.81;99666.75;30713004;28;111281;-70
2023/07/20 15:04:30;;;;;;;3.33;1.20;;;;;;;25.48;37.69;99666.09;30766348;28;102084;-68
2023/07/20 15:19:30;;;;;;;1.55;1.00;;;;;;;25.96;37.35;99666.28;30812515;28;108468;-68
2023/07/20 15:34:30;;;;;;;2.63;1.20;;;;;;;26.55;37.88;99679.97;30821774;28;97934;-68
2023/07/20 15:49:31;;;;;;;2.75;1.00;;;;;;;26.82;36.47;99675.88;30836504;28;114243;-68
2023/07/20 16:04:31;;;;;;;2.78;1.25;;;;;;;26.72;35.44;99682.25;30846714;28;96942;-68
2023/07/20 16:19:31;;;;;;;4.10;1.30;;;;;;;26.10;36.66;99685.56;30845170;28;97311;-69
2023/07/20 16:34:32;;;;;;;1.98;0.90;;;;;;;25.62;35.75;99677.19;30824097;28;97142;-67
2023/07/20 16:49:32;;;;;;;2.33;1.02;;;;;;;24.77;36.66;99689.84;30785018;28;96819;-69
2023/07/20 17:04:33;;;;;;;1.70;1.05;;;;;;;24.18;37.63;99694.81;30781567;28;97342;-67
2023/07/20 17:19:34;;;;;;;0.95;0.82;;;;;;;23.94;38.44;99689.91;30840301;28;97254;-68
2023/07/20 17:34:34;;;;;;;0.80;0.80;;;;;;;23.87;38.58;99689.31;30835439;28;96893;-65
2023/07/20 17:49:35;;;;;;;2.08;1.00;;;;;;;23.62;38.70;99699.09;30830539;28;97654;-64
2023/07/20 18:04:35;;;;;;;1.63;0.90;;;;;;;23.49;39.44;99705.03;30835286;28;96907;-64
2023/07/20 18:19:36;;;;;;;2.05;1.10;;;;;;;22.81;40.57;99712.06;30830614;28;98650;-66
2023/07/20 18:34:37;;;;;;;2.23;1.13;;;;;;;22.33;42.13;99722.03;30758908;28;97355;-66
2023/07/20 18:49:37;;;;;;;2.33;0.90;;;;;;;22.20;42.93;99731.44;30807009;28;106653;-65
2023/07/20 19:04:38;;;;;;;2.97;0.90;;;;;;;22.01;42.99;99752.69;30789014;28;97245;-66
2023/07/20 19:19:38;;;;;;;5.05;2.13;;;;;;;21.52;44.29;99780.59;31635914;22;99004;-65
2023/07/20 19:34:38;;;;;;;3.63;1.70;;;;;;;21.37;45.39;99799.41;30704541;28;96748;-64
2023/07/20 19:49:39;;;;;;;2.27;1.43;;;;;;;21.45;45.29;99812.50;30669694;28;113757;-65
2023/07/20 20:04:40;;;;;;;4.07;1.80;;;;;;;21.47;45.83;99821.19;30663160;28;97304;-64
2023/07/20 20:19:40;;;;;;;4.33;1.47;;;;;;;21.51;46.04;99825.03;30620062;28;97328;-63
2023/07/20 20:34:41;;;;;;;2.53;1.17;;;;;;;21.47;46.17;99818.47;30597929;28;112837;-64
2023/07/20 20:49:45;;;;;;;3.23;1.80;;;;;;;21.29;46.40;99828.53;30602348;28;108992;-65
2023/07/20 21:04:47;;;;;;;2.10;1.27;;;;;;;21.12;47.18;99834.00;30603142;28;97346;-63
2023/07/20 21:19:49;;;;;;;3.90;1.60;;;;;;;20.36;48.36;99836.28;30599684;28;97347;-65
2023/07/20 21:34:49;;;;;;;5.73;1.97;;;;;;;20.08;49.46;99840.63;30598528;28;97861;-64
2023/07/20 21:49:49;;;;;;;4.07;1.80;;;;;;;19.91;51.46;99849.50;30597824;28;97335;-64
2023/07/20 22:04:50;;;;;;;4.15;2.08;;;;;;;19.72;51.86;99854.22;30596880;28;96668;-65
2023/07/20 22:19:50;;;;;;;3.25;2.00;;;;;;;19.42;53.20;99849.00;30594672;28;97334;-65
2023/07/20 22:34:50;;;;;;;2.25;1.70;;;;;;;19.25;54.40;99852.44;30594032;28;104887;-65
2023/07/20 22:49:50;;;;;;;3.85;1.90;;;;;;;19.42;54.59;99860.66;30591018;28;111344;-65
2023/07/20 23:04:53;;;;;;;3.47;2.00;;;;;;;19.30;55.25;99854.44;30587279;28;97436;-64
2023/07/20 23:19:53;;;;;;;5.60;2.27;;;;;;;19.28;55.49;99843.84;30594112;28;97480;-67
2023/07/20 23:34:53;;;;;;;3.67;2.10;;;;;;;19.12;55.73;99839.16;30596056;28;114905;-65
2023/07/20 23:49:55;;;;;;;2.73;1.80;;;;;;;19.35;55.86;99841.03;30597048;28;98933;-66
